createdAt,value
2018-12-15T00:00:02.146Z,86.31
2018-12-15T00:01:02.136Z,86.20
2018-12-15T00:02:02.121Z,86.31
2018-12-15T00:03:02.119Z,85.78
2018-12-15T00:04:02.133Z,84.84
2018-12-15T00:05:02.098Z,85.05
2018-12-15T00:06:02.076Z,86.41
2018-12-15T00:07:02.071Z,86.41
2018-12-15T00:08:02.055Z,85.99
2018-12-15T00:09:02.059Z,84.84
2018-12-15T00:10:02.060Z,84.95
2018-12-15T00:11:02.023Z,85.58
2018-12-15T00:12:02.013Z,86.20
2018-12-15T00:13:02.002Z,85.99
2018-12-15T00:14:01.991Z,85.82
2018-12-15T00:15:01.986Z,85.68
2018-12-15T00:16:01.998Z,86.31
2018-12-15T00:17:05.742Z,86.52
2018-12-15T00:18:01.951Z,86.31
2018-12-15T00:19:01.939Z,85.89
2018-12-15T00:20:01.926Z,85.89
2018-12-15T00:21:01.911Z,86.31
2018-12-15T00:22:01.926Z,86.20
2018-12-15T00:23:01.891Z,86.10
2018-12-15T00:24:01.881Z,86.31
2018-12-15T00:25:01.869Z,85.99
2018-12-15T00:26:01.862Z,85.89
2018-12-15T00:27:01.847Z,86.31
2018-12-15T00:28:01.943Z,85.99
2018-12-15T00:29:01.906Z,85.78
2018-12-15T00:30:01.822Z,86.20
2018-12-15T00:31:01.832Z,86.10
2018-12-15T00:32:01.812Z,86.10
2018-12-15T00:33:01.836Z,86.31
2018-12-15T00:34:01.878Z,86.10
2018-12-15T00:35:01.772Z,86.52
2018-12-15T00:36:01.763Z,86.10
2018-12-15T00:37:01.771Z,86.10
2018-12-15T00:38:01.729Z,86.31
2018-12-15T00:39:01.738Z,86.20
2018-12-15T00:40:01.785Z,86.31
2018-12-15T00:41:01.712Z,86.83
2018-12-15T00:42:01.704Z,86.45
2018-12-15T00:43:01.688Z,86.20
2018-12-15T00:44:01.711Z,86.41
2018-12-15T00:45:01.667Z,86.83
2018-12-15T00:46:01.671Z,86.52
2018-12-15T00:47:01.631Z,86.41
2018-12-15T00:48:01.669Z,86.10
2018-12-15T00:49:01.636Z,86.20
2018-12-15T00:50:01.629Z,85.99
2018-12-15T00:51:01.596Z,87.15
2018-12-15T00:52:01.620Z,86.83
2018-12-15T00:53:01.620Z,86.83
2018-12-15T00:54:01.583Z,86.31
2018-12-15T00:55:01.594Z,86.93
2018-12-15T00:56:01.652Z,86.62
2018-12-15T00:57:01.620Z,86.52
2018-12-15T00:58:01.708Z,86.10
2018-12-15T00:59:01.633Z,86.52
2018-12-15T01:00:01.490Z,86.62
2018-12-15T01:01:01.587Z,85.99
2018-12-15T01:02:01.499Z,86.10
2018-12-15T01:03:01.490Z,86.72
2018-12-15T01:04:01.447Z,86.41
2018-12-15T01:05:01.431Z,86.10
2018-12-15T01:06:01.420Z,86.72
2018-12-15T01:07:01.407Z,86.62
2018-12-15T01:08:01.395Z,85.89
2018-12-15T01:09:01.399Z,85.89
2018-12-15T01:10:01.381Z,86.72
2018-12-15T01:11:01.367Z,86.93
2018-12-15T01:12:01.353Z,87.04
2018-12-15T01:13:01.355Z,86.83
2018-12-15T01:14:01.335Z,86.72
2018-12-15T01:15:01.342Z,87.56
2018-12-15T01:16:01.315Z,87.25
2018-12-15T01:17:01.314Z,86.83
2018-12-15T01:18:01.287Z,86.83
2018-12-15T01:19:01.279Z,87.04
2018-12-15T01:20:01.281Z,86.41
2018-12-15T01:21:01.271Z,86.62
2018-12-15T01:22:01.254Z,86.41
2018-12-15T01:23:01.231Z,86.72
2018-12-15T01:24:01.226Z,87.25
2018-12-15T01:25:01.212Z,87.04
2018-12-15T01:26:01.216Z,86.93
2018-12-15T01:27:01.188Z,87.98
2018-12-15T01:28:01.272Z,87.77
2018-12-15T01:29:01.184Z,87.66
2018-12-15T01:30:01.266Z,87.98
2018-12-15T01:31:01.152Z,88.19
2018-12-15T01:32:01.158Z,87.98
2018-12-15T01:33:01.127Z,87.66
2018-12-15T01:34:02.709Z,87.35
2018-12-15T01:35:01.109Z,87.35
2018-12-15T01:36:01.097Z,88.19
2018-12-15T01:37:01.084Z,87.77
2018-12-15T01:38:01.097Z,88.09
2018-12-15T01:39:01.060Z,88.19
2018-12-15T01:40:01.057Z,87.98
2018-12-15T01:41:01.040Z,88.19
2018-12-15T01:42:01.028Z,87.98
2018-12-15T01:43:01.016Z,87.98
2018-12-15T01:44:01.014Z,88.40
2018-12-15T01:45:00.997Z,88.29
2018-12-15T01:46:00.989Z,88.40
2018-12-15T01:47:00.980Z,87.25
2018-12-15T01:48:00.980Z,87.46
2018-12-15T01:49:00.965Z,87.77
2018-12-15T01:50:00.940Z,87.66
2018-12-15T01:51:00.927Z,86.31
2018-12-15T01:52:00.917Z,84.84
2018-12-15T01:53:00.912Z,85.19
2018-12-15T01:54:00.902Z,86.14
2018-12-15T01:55:00.901Z,85.89
2018-12-15T01:56:00.874Z,85.58
2018-12-15T01:57:00.862Z,86.41
2018-12-15T01:58:00.856Z,86.20
2018-12-15T01:59:00.844Z,84.32
2018-12-15T02:00:00.840Z,85.05
2018-12-15T02:01:00.844Z,84.53
2018-12-15T02:02:00.807Z,84.32
2018-12-15T02:03:00.800Z,83.59
2018-12-15T02:04:00.788Z,82.75
2018-12-15T02:05:00.775Z,82.96
2018-12-15T02:06:00.768Z,82.54
2018-12-15T02:07:00.772Z,81.60
2018-12-15T02:08:00.750Z,81.01
2018-12-15T02:09:00.736Z,80.97
2018-12-15T02:10:00.724Z,81.39
2018-12-15T02:11:00.712Z,80.27
2018-12-15T02:12:00.705Z,80.45
2018-12-15T02:13:00.720Z,80.13
2018-12-15T02:14:00.676Z,80.24
2018-12-15T02:15:00.667Z,79.19
2018-12-15T02:16:00.656Z,78.36
2018-12-15T02:17:00.648Z,78.46
2018-12-15T02:18:00.652Z,78.88
2018-12-15T02:19:00.636Z,79.19
2018-12-15T02:20:00.624Z,78.77
2018-12-15T02:21:00.600Z,77.94
2018-12-15T02:22:00.592Z,78.46
2018-12-15T02:23:00.580Z,78.25
2018-12-15T02:24:00.580Z,78.88
2018-12-15T02:25:00.569Z,78.04
2018-12-15T02:26:00.548Z,78.88
2018-12-15T02:27:00.538Z,79.30
2018-12-15T02:28:00.523Z,79.19
2018-12-15T02:29:00.543Z,78.04
2018-12-15T02:30:00.504Z,77.52
2018-12-15T02:31:00.497Z,78.15
2018-12-15T02:32:00.496Z,77.94
2018-12-15T02:33:00.472Z,78.04
2018-12-15T02:34:00.469Z,77.73
2018-12-15T02:35:00.468Z,78.36
2018-12-15T02:36:00.442Z,78.88
2018-12-15T02:37:00.428Z,77.52
2018-12-15T02:38:00.427Z,76.57
2018-12-15T02:39:00.408Z,76.47
2018-12-15T02:40:00.400Z,77.10
2018-12-15T02:41:00.395Z,77.00
2018-12-15T02:42:00.375Z,77.52
2018-12-15T02:43:00.360Z,77.00
2018-12-15T02:44:00.360Z,76.57
2018-12-15T02:45:00.339Z,77.42
2018-12-15T02:46:00.344Z,77.10
2018-12-15T02:47:00.317Z,77.10
2018-12-15T02:48:00.308Z,77.20
2018-12-15T02:49:00.298Z,77.20
2018-12-15T02:50:00.294Z,76.79
2018-12-15T02:51:00.280Z,77.73
2018-12-15T02:52:00.278Z,78.88
2018-12-15T02:53:00.262Z,77.83
2018-12-15T02:54:00.241Z,77.03
2018-12-15T02:55:00.232Z,76.26
2018-12-15T02:56:00.226Z,76.47
2018-12-15T02:57:00.233Z,76.79
2018-12-15T02:58:00.203Z,76.89
2018-12-15T02:59:00.188Z,76.79
2018-12-15T03:00:00.177Z,76.37
2018-12-15T03:01:00.167Z,76.68
2018-12-15T03:02:00.162Z,77.00
2018-12-15T03:03:00.175Z,77.83
2018-12-15T03:04:00.135Z,77.52
2018-12-15T03:05:00.125Z,77.73
2018-12-15T03:06:00.113Z,78.36
2018-12-15T03:07:00.111Z,77.52
2018-12-15T03:08:00.100Z,77.20
2018-12-15T03:09:00.101Z,76.93
2018-12-15T03:10:00.068Z,77.20
2018-12-15T03:11:00.055Z,78.04
2018-12-15T03:12:00.123Z,78.15
2018-12-15T03:13:00.039Z,78.15
2018-12-15T03:14:00.035Z,77.10
2018-12-15T03:15:00.029Z,77.42
2018-12-15T03:16:00.004Z,77.73
2018-12-15T03:16:59.992Z,78.77
2018-12-15T03:17:59.984Z,77.55
2018-12-15T03:18:59.972Z,76.79
2018-12-15T03:19:59.987Z,77.00
2018-12-15T03:20:59.954Z,77.83
2018-12-15T03:21:59.935Z,78.77
2018-12-15T03:22:59.923Z,78.36
2018-12-15T03:23:59.922Z,78.15
2018-12-15T03:24:59.913Z,79.40
2018-12-15T03:25:59.914Z,78.67
2018-12-15T03:26:59.879Z,78.56
2018-12-15T03:27:59.871Z,77.94
2018-12-15T03:28:59.859Z,77.83
2018-12-15T03:29:59.847Z,78.25
2018-12-15T03:30:59.849Z,78.46
2018-12-15T03:31:59.860Z,77.62
2018-12-15T03:32:59.828Z,77.94
2018-12-15T03:33:59.805Z,76.89
2018-12-15T03:34:59.795Z,77.24
2018-12-15T03:35:59.783Z,76.68
2018-12-15T03:36:59.793Z,77.20
2018-12-15T03:37:59.779Z,77.10
2018-12-15T03:38:59.766Z,77.83
2018-12-15T03:39:59.744Z,77.52
2018-12-15T03:40:59.732Z,77.42
2018-12-15T03:41:59.727Z,78.04
2018-12-15T03:42:59.736Z,78.67
2018-12-15T03:43:59.699Z,77.94
2018-12-15T03:44:59.701Z,78.15
2018-12-15T03:45:59.679Z,77.97
2018-12-15T03:46:59.672Z,77.52
2018-12-15T03:47:59.655Z,77.52
2018-12-15T03:48:59.664Z,78.77
2018-12-15T03:49:59.631Z,79.19
2018-12-15T03:50:59.629Z,79.61
2018-12-15T03:51:59.612Z,79.82
2018-12-15T03:52:59.600Z,78.46
2018-12-15T03:53:59.593Z,78.25
2018-12-15T03:54:59.597Z,79.19
2018-12-15T03:55:59.568Z,78.99
2018-12-15T03:56:59.562Z,78.46
2018-12-15T03:57:59.552Z,78.88
2018-12-15T03:58:59.533Z,79.09
2018-12-15T03:59:59.524Z,79.50
2018-12-15T04:00:59.537Z,78.99
2018-12-15T04:01:59.504Z,78.60
2018-12-15T04:02:59.493Z,77.87
2018-12-15T04:03:59.493Z,78.04
2018-12-15T04:04:59.468Z,78.56
2018-12-15T04:05:59.460Z,78.08
2018-12-15T04:06:59.461Z,79.09
2018-12-15T04:07:59.433Z,79.40
2018-12-15T04:08:59.428Z,79.50
2018-12-15T04:09:59.424Z,80.49
2018-12-15T04:10:59.400Z,80.03
2018-12-15T04:11:59.392Z,81.07
2018-12-15T04:12:59.404Z,81.18
2018-12-15T04:13:59.368Z,80.97
2018-12-15T04:14:59.356Z,81.12
2018-12-15T04:15:59.360Z,80.35
2018-12-15T04:16:59.345Z,79.64
2018-12-15T04:18:03.734Z,78.60
2018-12-15T04:18:59.332Z,79.64
2018-12-15T04:19:59.306Z,79.75
2018-12-15T04:20:59.296Z,80.27
2018-12-15T04:21:59.288Z,80.13
2018-12-15T04:22:59.288Z,80.24
2018-12-15T04:23:59.261Z,81.18
2018-12-15T04:24:59.276Z,80.76
2018-12-15T04:25:59.243Z,80.13
2018-12-15T04:26:59.228Z,80.24
2018-12-15T04:27:59.217Z,79.61
2018-12-15T04:28:59.208Z,77.62
2018-12-15T04:29:59.196Z,76.79
2018-12-15T04:30:59.204Z,77.55
2018-12-15T04:31:59.173Z,77.34
2018-12-15T04:32:59.161Z,76.79
2018-12-15T04:33:59.153Z,76.82
2018-12-15T04:34:59.148Z,76.37
2018-12-15T04:35:59.128Z,77.03
2018-12-15T04:36:59.132Z,77.20
2018-12-15T04:37:59.105Z,77.87
2018-12-15T04:38:59.097Z,78.88
2018-12-15T04:39:59.084Z,79.19
2018-12-15T04:40:59.083Z,79.23
2018-12-15T04:41:59.088Z,78.36
2018-12-15T04:42:59.057Z,78.70
2018-12-15T04:43:59.041Z,79.19
2018-12-15T04:44:59.033Z,78.81
2018-12-15T04:45:59.020Z,77.24
2018-12-15T04:46:59.008Z,77.31
2018-12-15T04:47:59.024Z,77.94
2018-12-15T04:48:58.988Z,77.52
2018-12-15T04:49:58.981Z,77.31
2018-12-15T04:50:58.965Z,77.73
2018-12-15T04:51:58.961Z,77.83
2018-12-15T04:52:58.950Z,78.25
2018-12-15T04:53:58.954Z,77.87
2018-12-15T04:54:58.924Z,78.67
2018-12-15T04:55:58.911Z,78.46
2018-12-15T04:56:58.901Z,77.94
2018-12-15T04:57:58.889Z,78.25
2018-12-15T04:58:58.877Z,78.77
2018-12-15T04:59:58.889Z,78.18
2018-12-15T05:00:58.861Z,77.42
2018-12-15T05:01:58.844Z,77.76
2018-12-15T05:02:58.838Z,77.83
2018-12-15T05:03:58.820Z,77.52
2018-12-15T05:04:58.820Z,77.73
2018-12-15T05:05:58.824Z,77.94
2018-12-15T05:06:58.792Z,77.97
2018-12-15T05:07:58.777Z,77.83
2018-12-15T05:08:58.767Z,77.87
2018-12-15T05:09:58.768Z,78.81
2018-12-15T05:10:58.763Z,79.30
2018-12-15T05:11:58.742Z,78.91
2018-12-15T05:12:58.723Z,78.46
2018-12-15T05:13:58.712Z,77.20
2018-12-15T05:14:58.700Z,77.31
2018-12-15T05:15:58.689Z,77.42
2018-12-15T05:16:58.692Z,77.87
2018-12-15T05:17:58.675Z,79.13
2018-12-15T05:18:58.656Z,79.23
2018-12-15T05:19:58.644Z,78.46
2018-12-15T05:20:58.633Z,77.66
2018-12-15T05:21:58.620Z,77.97
2018-12-15T05:22:58.628Z,78.04
2018-12-15T05:23:58.607Z,78.50
2018-12-15T05:24:58.596Z,77.45
2018-12-15T05:25:58.584Z,78.15
2018-12-15T05:26:58.568Z,78.91
2018-12-15T05:27:58.572Z,79.02
2018-12-15T05:28:58.556Z,79.09
2018-12-15T05:29:58.533Z,78.60
2018-12-15T05:30:58.523Z,78.60
2018-12-15T05:31:58.519Z,78.99
2018-12-15T05:32:58.504Z,78.88
2018-12-15T05:33:58.500Z,79.50
2018-12-15T05:34:58.479Z,78.70
2018-12-15T05:35:58.480Z,78.81
2018-12-15T05:36:58.461Z,79.13
2018-12-15T05:37:58.448Z,79.61
2018-12-15T05:38:58.448Z,80.24
2018-12-15T05:39:58.427Z,80.49
2018-12-15T05:40:58.416Z,80.27
2018-12-15T05:41:58.408Z,79.64
2018-12-15T05:42:58.399Z,79.50
2018-12-15T05:43:58.380Z,79.64
2018-12-15T05:44:58.396Z,79.75
2018-12-15T05:45:58.355Z,80.17
2018-12-15T05:46:58.348Z,80.38
2018-12-15T05:47:58.344Z,80.38
2018-12-15T05:48:58.324Z,79.86
2018-12-15T05:49:58.313Z,80.07
2018-12-15T05:50:58.312Z,79.54
2018-12-15T05:51:58.289Z,78.91
2018-12-15T05:52:58.280Z,79.54
2018-12-15T05:53:58.274Z,78.91
2018-12-15T05:54:58.270Z,78.91
2018-12-15T05:55:58.273Z,79.64
2018-12-15T05:56:58.237Z,79.64
2018-12-15T05:57:58.228Z,79.33
2018-12-15T05:58:58.216Z,79.02
2018-12-15T05:59:58.204Z,79.23
2018-12-15T06:00:58.224Z,79.13
2018-12-15T06:01:58.197Z,78.70
2018-12-15T06:02:58.172Z,77.76
2018-12-15T06:03:58.160Z,78.50
2018-12-15T06:04:58.152Z,79.64
2018-12-15T06:05:58.136Z,79.72
2018-12-15T06:06:58.130Z,79.64
2018-12-15T06:07:58.128Z,79.75
2018-12-15T06:08:58.108Z,79.64
2018-12-15T06:09:58.095Z,79.75
2018-12-15T06:10:58.080Z,79.75
2018-12-15T06:11:58.072Z,79.96
2018-12-15T06:12:58.092Z,79.13
2018-12-15T06:13:58.052Z,79.23
2018-12-15T06:14:58.040Z,79.23
2018-12-15T06:15:58.032Z,78.81
2018-12-15T06:16:58.016Z,78.70
2018-12-15T06:17:58.009Z,79.23
2018-12-15T06:18:58.008Z,79.33
2018-12-15T06:19:57.984Z,79.13
2018-12-15T06:20:57.976Z,78.50
2018-12-15T06:21:57.964Z,78.60
2018-12-15T06:22:57.956Z,78.70
2018-12-15T06:23:57.961Z,78.70
2018-12-15T06:24:57.944Z,78.81
2018-12-15T06:25:57.920Z,78.70
2018-12-15T06:26:57.908Z,78.08
2018-12-15T06:27:57.902Z,79.02
2018-12-15T06:28:57.885Z,78.08
2018-12-15T06:29:57.892Z,78.08
2018-12-15T06:30:57.871Z,77.97
2018-12-15T06:31:57.856Z,78.64
2018-12-15T06:32:57.844Z,78.70
2018-12-15T06:33:57.852Z,78.81
2018-12-15T06:34:57.823Z,78.74
2018-12-15T06:35:57.828Z,79.44
2018-12-15T06:36:57.804Z,78.81
2018-12-15T06:37:57.800Z,79.64
2018-12-15T06:38:57.780Z,79.16
2018-12-15T06:39:57.764Z,79.64
2018-12-15T06:40:57.755Z,79.23
2018-12-15T06:41:57.768Z,79.23
2018-12-15T06:42:57.740Z,78.81
2018-12-15T06:43:57.728Z,79.23
2018-12-15T06:44:57.716Z,78.60
2018-12-15T06:45:57.704Z,79.02
2018-12-15T06:46:57.688Z,79.44
2018-12-15T06:47:57.692Z,79.54
2018-12-15T06:48:57.664Z,79.54
2018-12-15T06:49:57.664Z,79.64
2018-12-15T06:50:57.644Z,79.33
2018-12-15T06:51:57.635Z,78.60
2018-12-15T06:52:57.644Z,79.13
2018-12-15T06:53:57.614Z,79.54
2018-12-15T06:54:57.600Z,78.81
2018-12-15T06:55:57.595Z,78.91
2018-12-15T06:56:57.584Z,79.44
2018-12-15T06:57:57.571Z,79.64
2018-12-15T06:58:57.572Z,79.13
2018-12-15T06:59:57.547Z,79.86
2018-12-15T07:00:57.544Z,80.27
2018-12-15T07:01:57.524Z,79.96
2018-12-15T07:02:57.516Z,79.64
2018-12-15T07:03:57.500Z,78.81
2018-12-15T07:04:57.512Z,79.64
2018-12-15T07:05:57.485Z,79.02
2018-12-15T07:06:57.475Z,78.43
2018-12-15T07:07:57.456Z,79.33
2018-12-15T07:08:57.447Z,78.81
2018-12-15T07:09:57.439Z,78.91
2018-12-15T07:10:57.448Z,78.15
2018-12-15T07:11:57.412Z,78.60
2018-12-15T07:12:57.407Z,78.70
2018-12-15T07:13:57.391Z,78.08
2018-12-15T07:14:57.379Z,77.97
2018-12-15T07:15:57.371Z,77.66
2018-12-15T07:16:57.387Z,77.14
2018-12-15T07:17:57.347Z,77.34
2018-12-15T07:18:57.343Z,77.87
2018-12-15T07:19:57.324Z,77.97
2018-12-15T07:20:57.355Z,78.18
2018-12-15T07:21:57.303Z,78.70
2018-12-15T07:22:57.291Z,78.88
2018-12-15T07:23:57.279Z,78.81
2018-12-15T07:24:57.293Z,77.66
2018-12-15T07:25:57.261Z,77.24
2018-12-15T07:26:57.268Z,77.55
2018-12-15T07:27:57.237Z,78.50
2018-12-15T07:28:57.227Z,78.70
2018-12-15T07:29:57.217Z,78.60
2018-12-15T07:30:57.216Z,78.70
2018-12-15T07:31:57.195Z,79.75
2018-12-15T07:32:57.207Z,79.64
2018-12-15T07:33:57.171Z,78.18
2018-12-15T07:35:00.995Z,77.14
2018-12-15T07:35:57.151Z,77.24
2018-12-15T07:36:57.145Z,78.15
2018-12-15T07:37:57.127Z,78.67
2018-12-15T07:38:57.130Z,77.66
2018-12-15T07:39:57.107Z,77.03
2018-12-15T07:40:57.099Z,77.52
2018-12-15T07:41:57.088Z,77.97
2018-12-15T07:42:57.084Z,77.03
2018-12-15T07:43:57.079Z,77.20
2018-12-15T07:44:57.051Z,77.55
2018-12-15T07:45:57.044Z,76.89
2018-12-15T07:46:57.028Z,76.79
2018-12-15T07:47:57.023Z,76.79
2018-12-15T07:48:57.015Z,76.79
2018-12-15T07:49:57.014Z,77.00
2018-12-15T07:50:56.986Z,77.00
2018-12-15T07:51:56.974Z,76.57
2018-12-15T07:52:56.968Z,76.57
2018-12-15T07:53:56.950Z,77.00
2018-12-15T07:54:56.942Z,75.43
2018-12-15T07:55:56.950Z,75.22
2018-12-15T07:56:56.934Z,75.74
2018-12-15T07:57:56.918Z,76.68
2018-12-15T07:58:56.903Z,76.57
2018-12-15T07:59:56.894Z,76.72
2018-12-15T08:00:56.910Z,77.20
2018-12-15T08:01:56.866Z,76.89
2018-12-15T08:02:56.861Z,77.00
2018-12-15T08:03:56.850Z,77.00
2018-12-15T08:04:56.834Z,76.89
2018-12-15T08:05:56.822Z,76.57
2018-12-15T08:06:56.826Z,76.37
2018-12-15T08:07:56.803Z,76.79
2018-12-15T08:08:56.799Z,76.37
2018-12-15T08:09:56.783Z,76.89
2018-12-15T08:10:56.767Z,77.20
2018-12-15T08:11:56.775Z,77.00
2018-12-15T08:12:56.747Z,76.89
2018-12-15T08:13:56.743Z,77.42
2018-12-15T08:14:56.727Z,77.62
2018-12-15T08:15:56.719Z,77.31
2018-12-15T08:16:56.702Z,77.10
2018-12-15T08:17:56.703Z,78.15
2018-12-15T08:18:58.186Z,76.89
2018-12-15T08:19:56.678Z,76.68
2018-12-15T08:20:56.658Z,76.47
2018-12-15T08:21:56.653Z,77.00
2018-12-15T08:22:56.662Z,76.79
2018-12-15T08:23:56.631Z,77.62
2018-12-15T08:24:56.618Z,77.73
2018-12-15T08:25:56.603Z,77.83
2018-12-15T08:26:56.594Z,76.68
2018-12-15T08:27:56.590Z,76.68
2018-12-15T08:28:56.595Z,77.42
2018-12-15T08:29:56.563Z,77.73
2018-12-15T08:30:56.548Z,77.31
2018-12-15T08:31:56.539Z,76.57
2018-12-15T08:32:56.530Z,76.37
2018-12-15T08:33:56.519Z,74.90
2018-12-15T08:34:56.526Z,75.11
2018-12-15T08:35:56.514Z,75.32
2018-12-15T08:36:56.485Z,75.74
2018-12-15T08:37:56.474Z,75.63
2018-12-15T08:38:56.462Z,75.63
2018-12-15T08:39:56.450Z,75.43
2018-12-15T08:40:56.457Z,76.89
2018-12-15T08:41:56.430Z,75.53
2018-12-15T08:42:56.427Z,76.06
2018-12-15T08:43:56.409Z,75.63
2018-12-15T08:44:56.398Z,75.32
2018-12-15T08:45:56.386Z,76.68
2018-12-15T08:46:56.390Z,75.32
2018-12-15T08:47:56.365Z,75.18
2018-12-15T08:48:56.350Z,76.57
2018-12-15T08:49:56.341Z,77.00
2018-12-15T08:50:56.330Z,76.47
2018-12-15T08:51:56.317Z,76.23
2018-12-15T08:52:56.330Z,75.32
2018-12-15T08:53:56.294Z,74.90
2018-12-15T08:54:56.286Z,75.01
2018-12-15T08:55:56.274Z,74.45
2018-12-15T08:56:56.262Z,74.69
2018-12-15T08:57:56.266Z,74.49
2018-12-15T08:58:56.238Z,74.49
2018-12-15T08:59:56.238Z,77.10
2018-12-15T09:00:56.218Z,76.47
2018-12-15T09:01:56.206Z,76.89
2018-12-15T09:02:56.194Z,75.22
2018-12-15T09:03:56.198Z,74.90
2018-12-15T09:04:56.178Z,73.75
2018-12-15T09:06:03.206Z,73.02
2018-12-15T09:06:56.782Z,73.33
2018-12-15T09:07:56.137Z,74.80
2018-12-15T09:08:56.130Z,74.17
2018-12-15T09:09:56.130Z,74.59
2018-12-15T09:10:56.106Z,74.14
2018-12-15T09:11:56.093Z,73.23
2018-12-15T09:12:56.089Z,73.93
2018-12-15T09:13:56.082Z,74.17
2018-12-15T09:14:56.078Z,74.49
2018-12-15T09:16:03.098Z,75.29
2018-12-15T09:16:56.043Z,75.71
2018-12-15T09:17:56.029Z,76.75
2018-12-15T09:18:56.018Z,75.71
2018-12-15T09:19:56.005Z,74.04
2018-12-15T09:20:56.005Z,75.01
2018-12-15T09:21:55.994Z,74.66
2018-12-15T09:22:55.973Z,74.35
2018-12-15T09:23:55.965Z,75.49
2018-12-15T09:24:55.956Z,75.39
2018-12-15T09:25:55.950Z,74.24
2018-12-15T09:26:55.929Z,74.24
2018-12-15T09:27:55.917Z,75.18
2018-12-15T09:28:55.935Z,75.08
2018-12-15T09:30:03.445Z,74.35
2018-12-15T09:30:55.877Z,74.45
2018-12-15T09:31:55.877Z,74.98
2018-12-15T09:32:55.860Z,74.35
2018-12-15T09:33:55.845Z,74.55
2018-12-15T09:34:55.840Z,73.61
2018-12-15T09:35:55.825Z,74.98
2018-12-15T09:36:55.845Z,74.98
2018-12-15T09:37:55.805Z,75.71
2018-12-15T09:38:55.789Z,75.71
2018-12-15T09:39:55.789Z,75.60
2018-12-15T09:40:55.774Z,76.23
2018-12-15T09:41:55.769Z,75.60
2018-12-15T09:42:55.764Z,74.24
2018-12-15T09:43:55.733Z,74.55
2018-12-15T09:44:55.729Z,74.87
2018-12-15T09:45:55.717Z,74.87
2018-12-15T09:46:55.714Z,74.04
2018-12-15T09:47:55.689Z,75.08
2018-12-15T09:48:55.694Z,74.76
2018-12-15T09:49:55.669Z,73.93
2018-12-15T09:50:55.657Z,73.61
2018-12-15T09:51:55.646Z,74.04
2018-12-15T09:52:55.637Z,74.98
2018-12-15T09:53:55.637Z,73.51
2018-12-15T09:54:55.628Z,73.61
2018-12-15T09:55:55.605Z,75.08
2018-12-15T09:56:55.588Z,74.45
2018-12-15T09:57:55.581Z,73.06
2018-12-15T09:58:55.568Z,73.19
2018-12-15T09:59:55.568Z,73.30
2018-12-15T10:00:55.565Z,75.08
2018-12-15T10:01:55.536Z,74.24
2018-12-15T10:02:55.525Z,74.42
2018-12-15T10:03:55.517Z,75.04
2018-12-15T10:04:55.501Z,73.93
2018-12-15T10:05:55.504Z,74.00
2018-12-15T10:06:55.485Z,73.72
2018-12-15T10:07:55.478Z,74.21
2018-12-15T10:08:55.456Z,74.94
2018-12-15T10:09:55.445Z,74.21
2018-12-15T10:10:55.433Z,74.21
2018-12-15T10:11:55.440Z,74.00
2018-12-15T10:12:55.417Z,73.47
2018-12-15T10:13:55.412Z,73.27
2018-12-15T10:14:55.391Z,72.22
2018-12-15T10:15:55.377Z,72.22
2018-12-15T10:16:55.368Z,72.96
2018-12-15T10:17:55.373Z,72.96
2018-12-15T10:18:55.353Z,72.22
2018-12-15T10:19:55.356Z,72.02
2018-12-15T10:20:55.319Z,72.75
2018-12-15T10:21:55.312Z,72.64
2018-12-15T10:22:55.317Z,72.53
2018-12-15T10:23:55.293Z,72.53
2018-12-15T10:24:55.276Z,72.96
2018-12-15T10:25:55.268Z,73.37
2018-12-15T10:26:55.264Z,74.31
2018-12-15T10:27:55.253Z,73.16
2018-12-15T10:28:55.248Z,72.53
2018-12-15T10:29:55.249Z,73.90
2018-12-15T10:30:55.213Z,71.91
2018-12-15T10:31:55.198Z,72.75
2018-12-15T10:32:55.191Z,72.02
2018-12-15T10:33:55.180Z,72.75
2018-12-15T10:34:55.166Z,72.96
2018-12-15T10:35:55.176Z,73.37
2018-12-15T10:36:55.153Z,73.47
2018-12-15T10:37:55.132Z,75.26
2018-12-15T10:38:55.120Z,74.31
2018-12-15T10:39:55.108Z,73.58
2018-12-15T10:40:55.096Z,74.21
2018-12-15T10:41:55.101Z,75.26
2018-12-15T10:42:55.080Z,74.10
2018-12-15T10:43:55.069Z,73.27
2018-12-15T10:44:55.057Z,72.43
2018-12-15T10:45:55.041Z,72.02
2018-12-15T10:46:55.036Z,73.16
2018-12-15T10:47:55.029Z,73.37
2018-12-15T10:48:55.008Z,73.69
2018-12-15T10:49:55.001Z,73.37
2018-12-15T10:50:54.985Z,72.85
2018-12-15T10:51:54.973Z,71.70
2018-12-15T10:52:54.985Z,71.18
2018-12-15T10:53:54.960Z,71.39
2018-12-15T10:54:54.945Z,70.86
2018-12-15T10:55:54.929Z,70.86
2018-12-15T10:56:54.925Z,70.55
2018-12-15T10:57:54.909Z,70.86
2018-12-15T10:58:54.916Z,70.13
2018-12-15T10:59:54.892Z,71.80
2018-12-15T11:00:54.883Z,72.22
2018-12-15T11:01:54.860Z,72.33
2018-12-15T11:02:54.848Z,72.43
2018-12-15T11:04:00.638Z,71.91
2018-12-15T11:04:55.852Z,70.65
2018-12-15T11:05:54.820Z,70.13
2018-12-15T11:06:54.810Z,71.08
2018-12-15T11:07:54.792Z,71.91
2018-12-15T11:08:54.789Z,73.27
2018-12-15T11:09:54.781Z,72.02
2018-12-15T11:10:54.784Z,72.02
2018-12-15T11:11:54.760Z,71.59
2018-12-15T11:12:54.736Z,70.97
2018-12-15T11:13:54.724Z,71.91
2018-12-15T11:14:54.719Z,73.47
2018-12-15T11:15:54.705Z,73.47
2018-12-15T11:16:54.704Z,73.65
2018-12-15T11:17:54.692Z,72.22
2018-12-15T11:18:54.676Z,72.08
2018-12-15T11:19:54.663Z,72.19
2018-12-15T11:20:54.660Z,71.36
2018-12-15T11:21:54.636Z,71.77
2018-12-15T11:22:54.640Z,70.94
2018-12-15T11:23:54.629Z,71.98
2018-12-15T11:24:54.605Z,70.20
2018-12-15T11:25:54.594Z,70.20
2018-12-15T11:26:54.581Z,70.10
2018-12-15T11:27:54.572Z,69.89
2018-12-15T11:28:54.576Z,70.83
2018-12-15T11:29:54.552Z,70.94
2018-12-15T11:30:54.545Z,70.00
2018-12-15T11:31:54.532Z,69.89
2018-12-15T11:32:54.513Z,69.89
2018-12-15T11:33:54.500Z,69.89
2018-12-15T11:34:54.501Z,69.47
2018-12-15T11:35:54.487Z,69.58
2018-12-15T11:36:54.470Z,70.31
2018-12-15T11:37:54.460Z,70.62
2018-12-15T11:38:54.457Z,70.73
2018-12-15T11:39:55.252Z,71.08
2018-12-15T11:40:54.445Z,70.41
2018-12-15T11:41:54.414Z,69.89
2018-12-15T11:42:54.405Z,70.00
2018-12-15T11:43:54.388Z,70.20
2018-12-15T11:44:54.379Z,69.68
2018-12-15T11:45:54.384Z,70.73
2018-12-15T11:46:54.373Z,70.94
2018-12-15T11:47:54.347Z,70.20
2018-12-15T11:48:54.333Z,69.37
2018-12-15T11:49:54.321Z,70.83
2018-12-15T11:50:54.309Z,68.63
2018-12-15T11:51:54.312Z,70.20
2018-12-15T11:52:54.297Z,69.51
2018-12-15T11:53:54.285Z,69.58
2018-12-15T11:54:54.268Z,68.22
2018-12-15T11:55:54.277Z,68.95
2018-12-15T11:56:54.241Z,69.09
2018-12-15T11:57:54.245Z,69.61
2018-12-15T11:58:54.221Z,69.40
2018-12-15T11:59:54.217Z,68.35
2018-12-15T12:00:54.209Z,68.46
2018-12-15T12:01:54.189Z,67.94
2018-12-15T12:02:54.227Z,67.94
2018-12-15T12:03:54.166Z,69.09
2018-12-15T12:04:54.153Z,69.51
2018-12-15T12:05:54.146Z,69.82
2018-12-15T12:06:54.149Z,69.51
2018-12-15T12:07:54.133Z,69.82
2018-12-15T12:08:54.110Z,67.94
2018-12-15T12:09:54.102Z,67.41
2018-12-15T12:10:54.086Z,68.46
2018-12-15T12:11:54.073Z,68.88
2018-12-15T12:12:54.085Z,68.46
2018-12-15T12:14:00.129Z,68.15
2018-12-15T12:14:55.037Z,68.85
2018-12-15T12:15:54.033Z,69.09
2018-12-15T12:16:54.017Z,68.04
2018-12-15T12:17:54.006Z,68.15
2018-12-15T12:18:54.030Z,69.09
2018-12-15T12:19:53.985Z,68.57
2018-12-15T12:20:53.973Z,69.40
2018-12-15T12:21:53.961Z,69.09
2018-12-15T12:22:53.949Z,67.73
2018-12-15T12:23:53.941Z,67.41
2018-12-15T12:24:53.957Z,69.71
2018-12-15T12:25:54.698Z,68.35
2018-12-15T12:26:53.905Z,68.67
2018-12-15T12:27:53.899Z,68.04
2018-12-15T12:28:53.880Z,69.09
2018-12-15T12:29:53.873Z,69.82
2018-12-15T12:30:53.877Z,69.58
2018-12-15T12:31:53.848Z,67.83
2018-12-15T12:32:53.837Z,67.41
2018-12-15T12:33:53.824Z,67.62
2018-12-15T12:34:53.815Z,67.10
2018-12-15T12:35:53.816Z,67.62
2018-12-15T12:36:53.828Z,67.94
2018-12-15T12:37:53.781Z,69.09
2018-12-15T12:38:53.774Z,67.41
2018-12-15T12:39:53.760Z,68.15
2018-12-15T12:40:53.750Z,69.19
2018-12-15T12:41:53.737Z,69.09
2018-12-15T12:42:53.754Z,68.98
2018-12-15T12:43:53.713Z,69.92
2018-12-15T12:44:53.704Z,70.34
2018-12-15T12:45:53.693Z,70.45
2018-12-15T12:46:53.689Z,70.83
2018-12-15T12:47:53.685Z,68.67
2018-12-15T12:48:53.657Z,67.62
2018-12-15T12:49:56.777Z,69.09
2018-12-15T12:50:53.637Z,69.40
2018-12-15T12:51:53.625Z,69.71